Terminal Aerodrome Forecast
Issued by NWS Twin Cities, MN

Home | Current Version | Previous Version | Graphics & Text | Print | Product List | Glossary On
Versions: 1 2 3 4 5 6 7 8 9 10 11 12 13
000
FTUS43 KMPX 270520
TAFEAU
TAF
KEAU 270520Z 2706/2806 33008KT P6SM SCT008 OVC012
     FM271900 28011KT P6SM BKN020
     FM280100 27006KT P6SM BKN030=

USA.gov is the U.S. government's official web portal to all federal, state and local government web resources and services.